KCUH

Cushing Municipal Airport

Cushing, Oklahoma, USA
METAR KCUH 170255Z AUTO 00000KT 10SM CLR 08/06 A3030 RMK AO2 T00800056
Observed Flight Rules
Oct-17 @ 02:55 UTC (13 minutes ago) Visual Flight Rules
Visibility Clouds
10 miles
  • Clear skies
Temperatures Readings
Current 8°C / 46°F
Dewpoint 6°C / 43°F
Humidity 87%
Altimeter 30.3" Hg
Pressure 1026 hPa
Elevation 279
METAR KCUH 170255Z AUTO 00000KT 10SM CLR 08/06 A3030 RMK AO2 T00800056
Observed Flight Rules
Oct-17 @ 02:55 UTC
(13 minutes ago)
VFR
Clouds
  • Clear skies
Temperature Dewpoint
8°C / 46°F 6°C / 43°F
Humidity Altimeter Pressure
87% 30.3" Hg 1026 hPa